LGL1112 LIML-EDDL
Flight info
| Callsign | LGL1112 |
|---|---|
| Flight time | N/A |
| Altitude | 32000 |
| Route | OMETO DCT AOSTA DCT ORSUD DCT MOLUS DCT GILIR DCT PENDU DCT IXILU DCT GIVOR DCT SORAL DCT IBERA DCT DIK N853 ARCKY T853 NVO T857 BIKMU BIKMU1A |
| Aircraft | B38M/M-SDE1FGHILORVWXY/HB1 |
Departure
| Time | 2026-05-04 16:11 |
|---|---|
| Airport | Milano Linate Airport (LIML) |
Arrival
| Time | N/A |
|---|---|
| Airport | Düsseldorf Airport (EDDL) |
| Time | Latitude | Longitude | Altitude | Speed | Heading |
|---|---|---|---|---|---|
| 2026-05-04 15:00 | 45.45971 | 9.27967 | 365 ft | 0 kts | 1° |
| 2026-05-04 15:51 | 45.45959 | 9.27967 | 365 ft | 4 kts | 0° |
| 2026-05-04 15:51 | 45.45936 | 9.27965 | 369 ft | 4 kts | 14° |
| 2026-05-04 15:51 | 45.45915 | 9.27951 | 365 ft | 4 kts | 47° |
| 2026-05-04 15:52 | 45.45907 | 9.27926 | 365 ft | 2 kts | 90° |
| 2026-05-04 15:52 | 45.45907 | 9.27924 | 365 ft | 1 kts | 90° |
| 2026-05-04 15:58 | 45.45907 | 9.27931 | 368 ft | 2 kts | 90° |
| 2026-05-04 15:58 | 45.45903 | 9.27964 | 368 ft | 4 kts | 117° |
| 2026-05-04 15:58 | 45.45880 | 9.27986 | 365 ft | 1 kts | 178° |
| 2026-05-04 15:58 | 45.45858 | 9.27986 | 365 ft | 6 kts | 179° |
| 2026-05-04 15:59 | 45.45785 | 9.27985 | 368 ft | 14 kts | 180° |
| 2026-05-04 15:59 | 45.45677 | 9.27984 | 371 ft | 17 kts | 181° |
| 2026-05-04 15:59 | 45.45552 | 9.27979 | 365 ft | 19 kts | 181° |
| 2026-05-04 15:59 | 45.45406 | 9.27972 | 364 ft | 21 kts | 186° |
| 2026-05-04 16:00 | 45.45279 | 9.27907 | 363 ft | 21 kts | 207° |
| 2026-05-04 16:00 | 45.45150 | 9.27836 | 362 ft | 17 kts | 161° |
| 2026-05-04 16:00 | 45.45039 | 9.27903 | 364 ft | 19 kts | 163° |
| 2026-05-04 16:00 | 45.44911 | 9.27933 | 361 ft | 14 kts | 176° |
| 2026-05-04 16:01 | 45.44850 | 9.27941 | 363 ft | 9 kts | 175° |
| 2026-05-04 16:01 | 45.44776 | 9.27951 | 363 ft | 12 kts | 175° |
| 2026-05-04 16:01 | 45.44679 | 9.27963 | 359 ft | 16 kts | 175° |
| 2026-05-04 16:01 | 45.44561 | 9.27974 | 358 ft | 18 kts | 178° |
| 2026-05-04 16:02 | 45.44424 | 9.27988 | 360 ft | 21 kts | 175° |
| 2026-05-04 16:02 | 45.44267 | 9.28003 | 364 ft | 24 kts | 175° |
| 2026-05-04 16:02 | 45.44008 | 9.28030 | 361 ft | 19 kts | 176° |
| 2026-05-04 16:03 | 45.43881 | 9.28045 | 361 ft | 13 kts | 174° |
| 2026-05-04 16:03 | 45.43783 | 9.28056 | 356 ft | 16 kts | 176° |
| 2026-05-04 16:03 | 45.43662 | 9.28068 | 361 ft | 19 kts | 175° |
| 2026-05-04 16:03 | 45.43546 | 9.28081 | 355 ft | 11 kts | 175° |
| 2026-05-04 16:04 | 45.43502 | 9.28085 | 357 ft | 7 kts | 187° |
| 2026-05-04 16:04 | 45.43458 | 9.28051 | 351 ft | 0 kts | 231° |
| 2026-05-04 16:04 | 45.43456 | 9.28045 | 351 ft | 2 kts | 235° |
| 2026-05-04 16:05 | 45.43449 | 9.28014 | 351 ft | 5 kts | 263° |
| 2026-05-04 16:05 | 45.43446 | 9.27965 | 358 ft | 0 kts | 265° |
| 2026-05-04 16:08 | 45.43442 | 9.27911 | 355 ft | 10 kts | 265° |
| 2026-05-04 16:09 | 45.43451 | 9.27824 | 357 ft | 1 kts | 354° |
| 2026-05-04 16:09 | 45.43456 | 9.27823 | 353 ft | 1 kts | 356° |
| 2026-05-04 16:10 | 45.44137 | 9.27745 | 355 ft | 122 kts | 356° |
| 2026-05-04 16:11 | 45.47665 | 9.26898 | 1970 ft | 193 kts | 341° |
| 2026-05-04 16:11 | 45.48992 | 9.26324 | 2642 ft | 208 kts | 339° |
| 2026-05-04 16:12 | 45.53663 | 9.23892 | 4677 ft | 256 kts | 339° |
| 2026-05-04 16:12 | 45.59092 | 9.21170 | 7241 ft | 285 kts | 340° |
| 2026-05-04 16:13 | 45.62267 | 9.17876 | 8331 ft | 289 kts | 298° |
| 2026-05-04 16:13 | 45.63273 | 9.12385 | 8560 ft | 289 kts | 279° |
| 2026-05-04 16:14 | 45.64015 | 9.06746 | 8539 ft | 288 kts | 279° |
| 2026-05-04 16:14 | 45.64679 | 9.01117 | 9135 ft | 289 kts | 276° |
| 2026-05-04 16:15 | 45.65514 | 8.92412 | 9998 ft | 296 kts | 275° |
| 2026-05-04 16:16 | 45.66066 | 8.86642 | 9981 ft | 293 kts | 275° |
| 2026-05-04 16:16 | 45.68695 | 8.79404 | 9974 ft | 279 kts | 332° |
| 2026-05-04 16:17 | 45.72474 | 8.78731 | 9960 ft | 280 kts | 13° |
| 2026-05-04 16:18 | 45.75893 | 8.84298 | 9318 ft | 261 kts | 96° |
| 2026-05-04 16:18 | 45.75612 | 8.86884 | 8967 ft | 266 kts | 101° |
| 2026-05-04 16:19 | 45.74780 | 8.94500 | 8563 ft | 261 kts | 99° |
| 2026-05-04 16:19 | 45.74282 | 8.99673 | 8554 ft | 261 kts | 108° |
| 2026-05-04 16:20 | 45.70324 | 9.03890 | 9808 ft | 256 kts | 180° |
| 2026-05-04 16:20 | 45.67086 | 9.02004 | 10531 ft | 257 kts | 225° |
| 2026-05-04 16:21 | 45.65738 | 8.94621 | 10772 ft | 269 kts | 268° |
| 2026-05-04 16:22 | 45.65969 | 8.89288 | 10148 ft | 266 kts | 271° |
| 2026-05-04 16:22 | 45.67713 | 8.81913 | 9162 ft | 273 kts | 319° |
| 2026-05-04 16:23 | 45.72791 | 8.82100 | 8545 ft | 262 kts | 47° |
| 2026-05-04 16:24 | 45.72932 | 8.91765 | 8539 ft | 260 kts | 110° |
| 2026-05-04 16:25 | 45.71790 | 8.96686 | 8567 ft | 262 kts | 110° |
| 2026-05-04 16:26 | 45.69487 | 9.05520 | 8525 ft | 256 kts | 135° |
| 2026-05-04 16:26 | 45.64600 | 9.08255 | 8608 ft | 256 kts | 168° |
| 2026-05-04 16:27 | 45.61145 | 9.09366 | 8589 ft | 256 kts | 168° |
| 2026-05-04 16:28 | 45.55943 | 9.11037 | 8516 ft | 257 kts | 167° |
| 2026-05-04 16:28 | 45.50726 | 9.12707 | 8523 ft | 256 kts | 173° |
| 2026-05-04 16:29 | 45.43615 | 9.13436 | 8537 ft | 256 kts | 175° |
| 2026-05-04 16:30 | 45.38282 | 9.14063 | 8567 ft | 256 kts | 175° |
| 2026-05-04 16:31 | 45.34721 | 9.14488 | 8554 ft | 255 kts | 176° |
| 2026-05-04 16:31 | 45.29423 | 9.15109 | 8547 ft | 255 kts | 175° |
| 2026-05-04 16:32 | 45.24409 | 9.15667 | 9134 ft | 235 kts | 175° |
| 2026-05-04 16:33 | 45.21116 | 9.16013 | 10381 ft | 244 kts | 176° |
| 2026-05-04 16:33 | 45.17691 | 9.16401 | 9552 ft | 252 kts | 175° |
| 2026-05-04 16:34 | 45.14149 | 9.16795 | 8829 ft | 255 kts | 175° |
| 2026-05-04 16:34 | 45.12415 | 9.16985 | 8638 ft | 250 kts | 175° |
| 2026-05-04 16:35 | 45.07415 | 9.17688 | 8131 ft | 246 kts | 161° |
| 2026-05-04 16:35 | 45.05267 | 9.24011 | 6969 ft | 264 kts | 77° |
| 2026-05-04 16:36 | 45.06038 | 9.26303 | 6789 ft | 260 kts | 60° |
| 2026-05-04 16:36 | 45.07958 | 9.30426 | 6443 ft | 249 kts | 37° |
| 2026-05-04 16:37 | 45.11230 | 9.31390 | 5896 ft | 249 kts | 354° |
| 2026-05-04 16:37 | 45.12950 | 9.31150 | 5612 ft | 248 kts | 354° |
| 2026-05-04 16:37 | 45.16410 | 9.30733 | 4957 ft | 252 kts | 355° |
| 2026-05-04 16:38 | 45.19893 | 9.30351 | 4508 ft | 244 kts | 355° |
| 2026-05-04 16:39 | 45.24588 | 9.29845 | 3956 ft | 214 kts | 355° |
| 2026-05-04 16:39 | 45.27500 | 9.29535 | 3422 ft | 205 kts | 355° |
| 2026-05-04 16:40 | 45.30292 | 9.29233 | 2900 ft | 198 kts | 355° |
| 2026-05-04 16:40 | 45.32976 | 9.28946 | 2399 ft | 192 kts | 354° |
| 2026-05-04 16:41 | 45.35511 | 9.28675 | 1956 ft | 165 kts | 354° |
| 2026-05-04 16:41 | 45.38611 | 9.28337 | 1273 ft | 141 kts | 354° |
| 2026-05-04 16:42 | 45.41557 | 9.28034 | 790 ft | 143 kts | 354° |
| 2026-05-04 16:43 | 45.43544 | 9.27815 | 419 ft | 140 kts | 355° |
| 2026-05-04 16:43 | 45.45069 | 9.27646 | 361 ft | 55 kts | 355° |
| 2026-05-04 16:43 | 45.45332 | 9.27675 | 367 ft | 33 kts | 25° |
| 2026-05-04 16:44 | 45.45463 | 9.27796 | 364 ft | 2 kts | 49° |
| 2026-05-04 16:45 | 45.45500 | 9.27816 | 367 ft | 4 kts | 359° |
| 2026-05-04 16:46 | 45.45705 | 9.27820 | 365 ft | 16 kts | 1° |
| 2026-05-04 16:46 | 45.45896 | 9.27837 | 365 ft | 12 kts | 42° |
| 2026-05-04 16:47 | 45.45916 | 9.28022 | 365 ft | 9 kts | 44° |
| 2026-05-04 16:47 | 45.45971 | 9.28033 | 367 ft | 0 kts | 2° |
| 2026-05-04 16:48 | 45.45972 | 9.28033 | 365 ft | 0 kts | 2° |